createdAt,value
2023-08-16T00:00:54.878Z,102177.75
2023-08-16T00:03:21.975Z,102168.66
2023-08-16T00:05:48.980Z,102172.25
2023-08-16T00:08:15.781Z,102169.88
2023-08-16T00:10:42.450Z,102166.88
2023-08-16T00:13:09.027Z,102167.47
2023-08-16T00:15:35.676Z,102163.00
2023-08-16T00:18:02.340Z,102166.31
2023-08-16T00:20:29.000Z,102165.63
2023-08-16T00:22:56.116Z,102172.69
2023-08-16T00:25:22.817Z,102167.31
2023-08-16T00:27:50.008Z,102172.41
2023-08-16T00:30:16.909Z,102175.88
2023-08-16T00:32:43.599Z,102173.97
2023-08-16T00:35:10.262Z,102174.47
2023-08-16T00:37:37.039Z,102180.84
2023-08-16T00:40:04.661Z,102182.63
2023-08-16T00:42:31.193Z,102184.41
2023-08-16T00:44:57.849Z,102186.81
2023-08-16T00:47:25.231Z,102191.59
2023-08-16T00:49:52.631Z,102187.00
2023-08-16T00:52:19.623Z,102191.59
2023-08-16T00:54:46.426Z,102198.84
2023-08-16T00:57:13.092Z,102194.56
2023-08-16T00:59:39.987Z,102201.84
2023-08-16T01:02:06.651Z,102199.75
2023-08-16T01:04:33.363Z,102197.06
2023-08-16T01:07:00.192Z,102202.75
2023-08-16T01:09:28.038Z,102201.28
2023-08-16T01:12:06.762Z,102209.72
2023-08-16T01:14:49.639Z,102202.56
2023-08-16T01:17:17.410Z,102204.56
2023-08-16T01:19:45.648Z,102202.28
2023-08-16T01:22:33.913Z,102202.41
2023-08-16T01:25:12.412Z,102195.81
2023-08-16T01:27:39.026Z,102205.28
2023-08-16T01:30:07.433Z,102215.75
2023-08-16T01:32:34.118Z,102222.97
2023-08-16T01:35:01.040Z,102206.84
2023-08-16T01:37:27.751Z,102223.31
2023-08-16T01:40:03.483Z,102226.84
2023-08-16T01:42:35.925Z,102224.56
2023-08-16T01:45:04.169Z,102223.84
2023-08-16T01:47:31.805Z,102224.47
2023-08-16T01:49:59.116Z,102220.00
2023-08-16T01:52:30.169Z,102225.44
2023-08-16T01:54:56.766Z,102215.28
2023-08-16T01:57:23.829Z,102214.50
2023-08-16T01:59:50.639Z,102217.69
2023-08-16T02:02:17.289Z,102221.97
2023-08-16T02:04:43.837Z,102215.69
2023-08-16T02:07:10.407Z,102210.03
2023-08-16T02:09:37.278Z,102210.03
2023-08-16T02:12:04.256Z,102218.09
2023-08-16T02:14:30.849Z,102210.81
2023-08-16T02:16:57.691Z,102208.63
2023-08-16T02:19:24.320Z,102205.03
2023-08-16T02:21:50.916Z,102202.06
2023-08-16T02:24:17.483Z,102205.25
2023-08-16T02:26:44.411Z,102209.34
2023-08-16T02:29:11.007Z,102210.03
2023-08-16T02:31:37.698Z,102213.00
2023-08-16T02:34:04.457Z,102213.59
2023-08-16T02:36:31.084Z,102221.66
2023-08-16T02:38:57.989Z,102231.81
2023-08-16T02:41:24.576Z,102233.63
2023-08-16T02:43:51.233Z,102235.72
2023-08-16T02:46:17.899Z,102235.44
2023-08-16T02:48:44.577Z,102238.91
2023-08-16T02:51:11.149Z,102231.91
2023-08-16T02:53:37.784Z,102225.56
2023-08-16T02:56:04.779Z,102227.75
2023-08-16T02:58:31.652Z,102235.59
2023-08-16T03:00:58.256Z,102227.63
2023-08-16T03:03:25.025Z,102232.09
2023-08-16T03:05:51.744Z,102236.75
2023-08-16T03:08:18.469Z,102229.81
2023-08-16T03:10:45.078Z,102229.63
2023-08-16T03:13:12.191Z,102225.94
2023-08-16T03:15:39.078Z,102224.94
2023-08-16T03:18:05.909Z,102218.06
2023-08-16T03:20:32.751Z,102218.13
2023-08-16T03:22:59.353Z,102226.25
2023-08-16T03:25:26.079Z,102223.06
2023-08-16T03:27:52.765Z,102229.00
2023-08-16T03:30:19.393Z,102231.50
2023-08-16T03:32:46.009Z,102226.13
2023-08-16T03:35:12.650Z,102222.63
2023-08-16T03:37:39.225Z,102233.09
2023-08-16T03:40:07.464Z,102237.06
2023-08-16T03:42:34.349Z,102244.84
2023-08-16T03:45:00.999Z,102245.91
2023-08-16T03:47:28.218Z,102249.69
2023-08-16T03:49:55.144Z,102256.97
2023-08-16T03:52:22.024Z,102245.78
2023-08-16T03:54:49.116Z,102260.06
2023-08-16T03:57:15.970Z,102266.03
2023-08-16T03:59:42.670Z,102268.13
2023-08-16T04:02:09.335Z,102273.50
2023-08-16T04:04:37.340Z,102274.28
2023-08-16T04:07:04.780Z,102270.53
2023-08-16T04:09:31.396Z,102266.22
2023-08-16T04:11:58.327Z,102263.34
2023-08-16T04:14:24.940Z,102257.53
2023-08-16T04:16:51.436Z,102259.19
2023-08-16T04:19:18.199Z,102260.56
2023-08-16T04:21:44.801Z,102265.72
2023-08-16T04:24:11.439Z,102264.41
2023-08-16T04:26:38.295Z,102266.31
2023-08-16T04:29:05.561Z,102273.25
2023-08-16T04:31:32.405Z,102266.81
2023-08-16T04:33:59.033Z,102272.47
2023-08-16T04:36:25.745Z,102272.47
2023-08-16T04:38:52.496Z,102270.28
2023-08-16T04:41:19.080Z,102274.84
2023-08-16T04:43:45.748Z,102274.06
2023-08-16T04:46:12.361Z,102275.13
2023-08-16T04:48:39.339Z,102271.44
2023-08-16T04:51:06.201Z,102282.53
2023-08-16T04:53:32.839Z,102271.56
2023-08-16T04:55:59.527Z,102281.72
2023-08-16T04:58:27.466Z,102279.25
2023-08-16T05:00:54.575Z,102283.28
2023-08-16T05:03:21.245Z,102285.13
2023-08-16T05:05:47.885Z,102279.56
2023-08-16T05:08:14.585Z,102291.31
2023-08-16T05:10:41.188Z,102292.03
2023-08-16T05:13:07.778Z,102289.56
2023-08-16T05:15:34.866Z,102289.00
2023-08-16T05:18:01.470Z,102291.09
2023-08-16T05:20:28.741Z,102292.69
2023-08-16T05:22:55.338Z,102302.13
2023-08-16T05:25:21.880Z,102300.03
2023-08-16T05:27:48.499Z,102301.38
2023-08-16T05:30:15.245Z,102304.38
2023-08-16T05:32:41.843Z,102307.63
2023-08-16T05:35:08.786Z,102303.59
2023-08-16T05:37:35.396Z,102299.72
2023-08-16T05:40:02.009Z,102309.53
2023-08-16T05:42:30.013Z,102309.41
2023-08-16T05:44:56.675Z,102305.78
2023-08-16T05:47:23.780Z,102302.66
2023-08-16T05:49:50.593Z,102312.69
2023-08-16T05:52:17.172Z,102302.81
2023-08-16T05:54:43.850Z,102306.88
2023-08-16T05:57:10.639Z,102301.72
2023-08-16T05:59:37.305Z,102306.25
2023-08-16T06:02:04.144Z,102306.16
2023-08-16T06:04:30.869Z,102316.34
2023-08-16T06:06:57.541Z,102312.56
2023-08-16T06:09:24.289Z,102308.59
2023-08-16T06:11:50.816Z,102316.94
2023-08-16T06:14:17.467Z,102317.72
2023-08-16T06:16:44.231Z,102309.81
2023-08-16T06:19:11.886Z,102318.94
2023-08-16T06:21:38.689Z,102323.47
2023-08-16T06:24:05.968Z,102322.16
2023-08-16T06:26:32.851Z,102327.50
2023-08-16T06:28:59.729Z,102333.47
2023-08-16T06:31:26.550Z,102319.69
2023-08-16T06:33:53.286Z,102329.13
2023-08-16T06:36:20.447Z,102339.03
2023-08-16T06:38:47.259Z,102337.34
2023-08-16T06:41:14.517Z,102333.63
2023-08-16T06:43:43.346Z,102329.59
2023-08-16T06:46:10.560Z,102326.78
2023-08-16T06:48:37.269Z,102330.47
2023-08-16T06:51:04.327Z,102327.28
2023-08-16T06:53:33.999Z,102325.25
2023-08-16T06:56:01.053Z,102325.25
2023-08-16T06:58:28.146Z,102317.94
2023-08-16T07:00:58.458Z,102324.00
2023-08-16T07:03:27.565Z,102327.63
2023-08-16T07:05:55.376Z,102343.66
2023-08-16T07:08:22.270Z,102335.88
2023-08-16T07:10:48.862Z,102340.63
2023-08-16T07:13:16.037Z,102354.78
2023-08-16T07:15:43.788Z,102346.00
2023-08-16T07:18:10.658Z,102353.00
2023-08-16T07:20:38.011Z,102353.00
2023-08-16T07:23:06.566Z,102355.56
2023-08-16T07:25:33.519Z,102361.91
2023-08-16T07:28:00.116Z,102368.59
2023-08-16T07:30:26.817Z,102361.41
2023-08-16T07:32:53.519Z,102367.16
2023-08-16T07:35:20.309Z,102367.66
2023-08-16T07:37:48.471Z,102361.56
2023-08-16T07:40:15.403Z,102360.91
2023-08-16T07:42:42.132Z,102358.38
2023-08-16T07:45:09.279Z,102350.91
2023-08-16T07:47:36.287Z,102356.47
2023-08-16T07:50:03.246Z,102350.41
2023-08-16T07:52:29.798Z,102348.94
2023-08-16T07:54:58.086Z,102352.59
2023-08-16T07:57:25.025Z,102351.03
2023-08-16T07:59:51.768Z,102356.13
2023-08-16T08:02:18.569Z,102345.88
2023-08-16T08:04:46.967Z,102354.66
2023-08-16T08:07:15.116Z,102344.47
2023-08-16T08:09:41.790Z,102350.66
2023-08-16T08:12:08.502Z,102348.53
2023-08-16T08:14:35.271Z,102347.91
2023-08-16T08:17:02.128Z,102356.34
2023-08-16T08:19:28.977Z,102351.72
2023-08-16T08:21:55.840Z,102348.06
2023-08-16T08:24:22.611Z,102363.47
2023-08-16T08:26:49.571Z,102361.53
2023-08-16T08:29:18.175Z,102356.22
2023-08-16T08:31:45.041Z,102365.91
2023-08-16T08:34:11.893Z,102370.22
2023-08-16T08:36:38.636Z,102363.81
2023-08-16T08:39:05.771Z,102374.59
2023-08-16T08:41:47.324Z,102376.03
2023-08-16T08:44:17.450Z,102369.97
2023-08-16T08:46:45.574Z,102369.75
2023-08-16T08:49:12.957Z,102366.19
2023-08-16T08:51:42.369Z,102373.47
2023-08-16T08:54:09.567Z,102365.59
2023-08-16T08:56:37.593Z,102375.25
2023-08-16T09:01:36.115Z,102383.22
2023-08-16T09:04:04.505Z,102380.78
2023-08-16T09:06:31.447Z,102380.47
2023-08-16T09:08:58.268Z,102374.03
2023-08-16T09:11:27.791Z,102371.25
2023-08-16T09:13:55.280Z,102379.06
2023-08-16T09:16:22.238Z,102371.16
2023-08-16T09:18:50.067Z,102379.56
2023-08-16T09:21:19.723Z,102378.88
2023-08-16T09:23:57.113Z,102379.78
2023-08-16T09:26:24.089Z,102373.34
2023-08-16T09:29:00.049Z,102381.94
2023-08-16T09:31:28.542Z,102380.38
2023-08-16T09:33:56.220Z,102364.31
2023-08-16T09:36:23.024Z,102377.00
2023-08-16T09:38:49.837Z,102372.03
2023-08-16T09:41:19.992Z,102373.84
2023-08-16T09:43:47.058Z,102381.41
2023-08-16T09:46:21.641Z,102372.25
2023-08-16T09:51:18.319Z,102374.56
2023-08-16T09:53:49.134Z,102370.44
2023-08-16T09:58:47.295Z,102373.88
2023-08-16T10:03:59.900Z,102356.91
2023-08-16T10:09:04.212Z,102360.97
2023-08-16T10:11:33.325Z,102359.50
2023-08-16T10:14:01.628Z,102358.81
2023-08-16T10:16:34.947Z,102362.44
2023-08-16T10:19:03.792Z,102353.84
2023-08-16T10:21:32.817Z,102354.84
2023-08-16T10:24:01.609Z,102349.75
2023-08-16T10:26:33.905Z,102351.56
2023-08-16T10:29:21.054Z,102355.63
2023-08-16T10:31:49.919Z,102343.81
2023-08-16T10:34:18.009Z,102345.53
2023-08-16T10:36:46.312Z,102353.81
2023-08-16T10:39:26.311Z,102351.59
2023-08-16T10:42:07.129Z,102352.44
2023-08-16T10:44:34.302Z,102355.22
2023-08-16T10:47:04.659Z,102351.13
2023-08-16T10:49:49.434Z,102352.28
2023-08-16T10:52:16.102Z,102355.19
2023-08-16T10:54:43.002Z,102346.38
2023-08-16T10:57:10.596Z,102352.72
2023-08-16T10:59:40.343Z,102357.91
2023-08-16T11:02:17.174Z,102351.69
2023-08-16T11:04:44.364Z,102357.81
2023-08-16T11:07:12.779Z,102358.72
2023-08-16T11:09:57.450Z,102357.66
2023-08-16T11:12:31.484Z,102354.78
2023-08-16T11:15:00.820Z,102358.50
2023-08-16T11:17:30.684Z,102357.31
2023-08-16T11:19:58.010Z,102368.03
2023-08-16T11:22:26.915Z,102358.75
2023-08-16T11:24:56.618Z,102351.66
2023-08-16T11:27:24.113Z,102358.16
2023-08-16T11:29:55.967Z,102351.50
2023-08-16T11:32:37.352Z,102348.66
2023-08-16T11:35:15.955Z,102355.16
2023-08-16T11:37:43.000Z,102351.00
2023-08-16T11:40:10.859Z,102348.84
2023-08-16T11:42:37.997Z,102347.31
2023-08-16T11:45:27.146Z,102344.66
2023-08-16T11:47:55.237Z,102347.75
2023-08-16T11:50:24.343Z,102343.09
2023-08-16T11:53:02.553Z,102347.47
2023-08-16T11:55:31.361Z,102348.25
2023-08-16T11:58:11.782Z,102339.66
2023-08-16T12:00:39.743Z,102329.59
2023-08-16T12:03:12.524Z,102334.44
2023-08-16T12:05:42.403Z,102328.69
2023-08-16T12:08:12.232Z,102335.38
2023-08-16T12:10:39.327Z,102336.38
2023-08-16T12:13:14.603Z,102339.91
2023-08-16T12:15:42.792Z,102337.09
2023-08-16T12:18:09.953Z,102328.91
2023-08-16T12:20:37.344Z,102328.69
2023-08-16T12:23:04.329Z,102329.56
2023-08-16T12:25:31.413Z,102319.09
2023-08-16T12:27:58.260Z,102315.72
2023-08-16T12:30:25.214Z,102312.63
2023-08-16T12:32:52.087Z,102320.47
2023-08-16T12:35:18.853Z,102307.19
2023-08-16T12:37:46.043Z,102305.16
2023-08-16T12:40:13.804Z,102297.84
2023-08-16T12:42:41.758Z,102296.72
2023-08-16T12:45:10.765Z,102286.59
2023-08-16T12:47:37.514Z,102285.03
2023-08-16T12:50:06.248Z,102294.00
2023-08-16T12:52:33.322Z,102301.38
2023-08-16T12:55:00.141Z,102294.84
2023-08-16T12:57:27.016Z,102292.63
2023-08-16T12:59:54.649Z,102287.66
2023-08-16T13:02:36.293Z,102285.84
2023-08-16T13:05:12.276Z,102298.09
2023-08-16T13:10:23.312Z,102292.56
2023-08-16T13:12:56.676Z,102293.41
2023-08-16T13:15:40.012Z,102288.09
2023-08-16T13:23:12.261Z,102283.19
2023-08-16T13:25:58.385Z,102284.34
2023-08-16T13:31:05.951Z,102277.78
2023-08-16T13:33:43.851Z,102280.53
2023-08-16T13:36:22.734Z,102291.78
2023-08-16T13:38:50.429Z,102281.22
2023-08-16T13:41:24.955Z,102267.72
2023-08-16T13:44:17.617Z,102277.44
2023-08-16T13:46:39.871Z,102272.50
2023-08-16T13:49:06.757Z,102273.78
2023-08-16T13:51:33.365Z,102275.25
2023-08-16T13:54:00.263Z,102272.94
2023-08-16T13:56:32.618Z,102275.25
2023-08-16T13:59:06.303Z,102269.44
2023-08-16T14:01:33.285Z,102278.03
2023-08-16T14:04:02.804Z,102276.59
2023-08-16T14:06:29.631Z,102278.22
2023-08-16T14:08:56.313Z,102278.38
2023-08-16T14:11:26.528Z,102267.09
2023-08-16T14:13:53.973Z,102278.03
2023-08-16T14:16:21.958Z,102280.88
2023-08-16T14:18:57.642Z,102283.31
2023-08-16T14:21:24.462Z,102278.28
2023-08-16T14:23:55.914Z,102274.38
2023-08-16T14:26:23.036Z,102275.56
2023-08-16T14:28:49.913Z,102270.97
2023-08-16T14:31:16.531Z,102278.44
2023-08-16T14:33:44.513Z,102280.84
2023-08-16T14:36:11.599Z,102274.66
2023-08-16T14:38:49.930Z,102286.78
2023-08-16T14:41:21.632Z,102281.31
2023-08-16T14:43:48.396Z,102289.59
2023-08-16T14:46:17.178Z,102294.63
2023-08-16T14:48:44.060Z,102294.28
2023-08-16T14:51:11.546Z,102289.59
2023-08-16T14:53:38.166Z,102296.28
2023-08-16T14:56:04.950Z,102292.44
2023-08-16T14:58:33.828Z,102294.75
2023-08-16T15:01:00.870Z,102294.00
2023-08-16T15:03:27.872Z,102287.63
2023-08-16T15:05:54.559Z,102285.25
2023-08-16T15:08:21.287Z,102290.34
2023-08-16T15:10:51.175Z,102287.97
2023-08-16T15:13:17.938Z,102286.84
2023-08-16T15:15:45.989Z,102278.53
2023-08-16T15:18:13.098Z,102273.38
2023-08-16T15:20:43.901Z,102276.47
2023-08-16T15:23:12.237Z,102284.63
2023-08-16T15:25:39.322Z,102289.66
2023-08-16T15:28:07.741Z,102279.91
2023-08-16T15:30:36.222Z,102275.63
2023-08-16T15:33:02.994Z,102287.66
2023-08-16T15:35:29.781Z,102278.22
2023-08-16T15:37:58.736Z,102274.69
2023-08-16T15:40:25.448Z,102275.16
2023-08-16T15:42:52.611Z,102272.75
2023-08-16T15:45:20.030Z,102266.94
2023-08-16T15:47:46.941Z,102262.97
2023-08-16T15:50:16.347Z,102266.88
2023-08-16T15:52:43.072Z,102258.75
2023-08-16T15:55:11.400Z,102258.34
2023-08-16T15:57:38.460Z,102260.66
2023-08-16T16:00:05.702Z,102254.00
2023-08-16T16:02:33.245Z,102260.19
2023-08-16T16:05:02.993Z,102244.91
2023-08-16T16:07:29.724Z,102250.31
2023-08-16T16:09:56.575Z,102245.47
2023-08-16T16:12:23.532Z,102239.50
2023-08-16T16:14:50.150Z,102246.13
2023-08-16T16:17:26.409Z,102240.97
2023-08-16T16:19:54.133Z,102252.22
2023-08-16T16:22:20.864Z,102247.88
2023-08-16T16:24:47.958Z,102249.06
2023-08-16T16:27:17.074Z,102247.47
2023-08-16T16:29:43.842Z,102240.72
2023-08-16T16:32:10.821Z,102243.00
2023-08-16T16:34:37.652Z,102240.97
2023-08-16T16:37:04.598Z,102240.19
2023-08-16T16:39:31.410Z,102234.66
2023-08-16T16:42:01.520Z,102231.16
2023-08-16T16:44:29.073Z,102233.81
2023-08-16T16:46:55.793Z,102241.06
2023-08-16T16:49:38.063Z,102240.78
2023-08-16T16:52:05.005Z,102247.34
2023-08-16T16:54:31.925Z,102241.38
2023-08-16T16:56:58.683Z,102243.31
2023-08-16T16:59:27.114Z,102238.56
2023-08-16T17:01:53.974Z,102237.84
2023-08-16T17:04:20.746Z,102238.13
2023-08-16T17:06:47.917Z,102240.06
2023-08-16T17:09:14.680Z,102243.53
2023-08-16T17:11:44.265Z,102237.66
2023-08-16T17:14:11.323Z,102244.25
2023-08-16T17:16:37.857Z,102241.53
2023-08-16T17:19:04.997Z,102236.41
2023-08-16T17:21:31.667Z,102240.66
2023-08-16T17:23:58.505Z,102242.97
2023-08-16T17:26:25.250Z,102236.66
2023-08-16T17:28:51.860Z,102232.28
2023-08-16T17:31:18.950Z,102229.88
2023-08-16T17:33:45.737Z,102239.19
2023-08-16T17:36:15.146Z,102230.16
2023-08-16T17:38:44.398Z,102230.88
2023-08-16T17:41:14.914Z,102229.22
2023-08-16T17:43:42.538Z,102229.50
2023-08-16T17:46:09.409Z,102230.22
2023-08-16T17:48:36.798Z,102233.59
2023-08-16T17:51:03.631Z,102234.75
2023-08-16T17:53:30.626Z,102239.84
2023-08-16T17:55:57.727Z,102242.47
2023-08-16T17:58:24.938Z,102242.81
2023-08-16T18:00:56.405Z,102243.16
2023-08-16T18:03:24.355Z,102245.44
2023-08-16T18:05:51.016Z,102247.75
2023-08-16T18:08:17.908Z,102246.53
2023-08-16T18:10:44.579Z,102239.44
2023-08-16T18:13:11.292Z,102241.28
2023-08-16T18:15:38.057Z,102244.34
2023-08-16T18:18:07.034Z,102244.72
2023-08-16T18:20:34.606Z,102253.25
2023-08-16T18:23:01.682Z,102249.22
2023-08-16T18:25:30.933Z,102246.41
2023-08-16T18:27:58.252Z,102245.91
2023-08-16T18:30:26.991Z,102247.75
2023-08-16T18:32:54.144Z,102241.81
2023-08-16T18:35:21.434Z,102242.50
2023-08-16T18:37:48.073Z,102253.22
2023-08-16T18:40:14.815Z,102248.47
2023-08-16T18:42:42.018Z,102249.97
2023-08-16T18:45:09.236Z,102250.69
2023-08-16T18:47:37.580Z,102254.44
2023-08-16T18:50:08.690Z,102258.66
2023-08-16T18:52:35.392Z,102265.25
2023-08-16T18:55:02.160Z,102258.94
2023-08-16T18:57:29.972Z,102258.84
2023-08-16T18:59:59.528Z,102260.69
2023-08-16T19:02:27.318Z,102264.00
2023-08-16T19:04:54.188Z,102263.13
2023-08-16T19:07:20.988Z,102255.66
2023-08-16T19:09:51.033Z,102267.94
2023-08-16T19:12:17.635Z,102276.03
2023-08-16T19:14:44.497Z,102286.81
2023-08-16T19:17:11.150Z,102289.06
2023-08-16T19:19:43.512Z,102289.75
2023-08-16T19:22:10.118Z,102290.13
2023-08-16T19:24:37.367Z,102300.91
2023-08-16T19:27:06.480Z,102302.72
2023-08-16T19:29:33.078Z,102303.06
2023-08-16T19:32:01.044Z,102307.28
2023-08-16T19:34:27.612Z,102319.75
2023-08-16T19:36:54.249Z,102320.09
2023-08-16T19:39:21.086Z,102315.34
2023-08-16T19:41:48.263Z,102308.31
2023-08-16T19:44:14.966Z,102308.97
2023-08-16T19:46:41.686Z,102300.28
2023-08-16T19:49:08.252Z,102310.28
2023-08-16T19:51:34.854Z,102310.94
2023-08-16T19:54:01.672Z,102302.25
2023-08-16T19:56:28.534Z,102291.88
2023-08-16T19:58:55.108Z,102297.69
2023-08-16T20:01:23.830Z,102295.63
2023-08-16T20:03:50.638Z,102291.69
2023-08-16T20:06:19.802Z,102288.19
2023-08-16T20:08:46.380Z,102282.44
2023-08-16T20:11:13.059Z,102289.56
2023-08-16T20:13:40.085Z,102290.59
2023-08-16T20:16:06.809Z,102294.44
2023-08-16T20:18:33.416Z,102286.84
2023-08-16T20:21:05.238Z,102295.53
2023-08-16T20:23:32.351Z,102289.31
2023-08-16T20:26:02.012Z,102290.03
2023-08-16T20:28:28.636Z,102289.34
2023-08-16T20:31:01.255Z,102291.03
2023-08-16T20:33:28.121Z,102288.50
2023-08-16T20:35:56.572Z,102295.00
2023-08-16T20:38:23.443Z,102282.38
2023-08-16T20:40:50.724Z,102289.94
2023-08-16T20:43:19.538Z,102292.03
2023-08-16T20:45:46.328Z,102290.41
2023-08-16T20:48:13.176Z,102283.34
2023-08-16T20:50:40.873Z,102285.31
2023-08-16T20:53:07.589Z,102284.03
2023-08-16T20:55:34.967Z,102296.63
2023-08-16T20:58:02.193Z,102295.25
2023-08-16T21:00:28.931Z,102293.41
2023-08-16T21:02:55.965Z,102295.63
2023-08-16T21:05:23.574Z,102297.88
2023-08-16T21:07:52.857Z,102303.13
2023-08-16T21:10:19.561Z,102310.63
2023-08-16T21:12:46.291Z,102309.19
2023-08-16T21:15:13.335Z,102306.81
2023-08-16T21:17:42.232Z,102309.69
2023-08-16T21:20:09.398Z,102299.84
2023-08-16T21:22:36.132Z,102311.50
2023-08-16T21:25:03.575Z,102313.56
2023-08-16T21:27:30.199Z,102318.97
2023-08-16T21:29:57.138Z,102313.88
2023-08-16T21:32:24.481Z,102316.63
2023-08-16T21:34:51.172Z,102322.22
2023-08-16T21:37:17.715Z,102316.81
2023-08-16T21:39:44.619Z,102314.59
2023-08-16T21:42:11.209Z,102321.09
2023-08-16T21:44:38.039Z,102315.72
2023-08-16T21:47:04.724Z,102319.22
2023-08-16T21:49:31.513Z,102318.09
2023-08-16T21:51:58.857Z,102321.94
2023-08-16T21:54:25.578Z,102318.91
2023-08-16T21:56:52.258Z,102317.13
2023-08-16T21:59:18.970Z,102317.91
2023-08-16T22:01:45.703Z,102313.16
2023-08-16T22:04:12.574Z,102319.19
2023-08-16T22:06:41.069Z,102317.91
2023-08-16T22:09:08.774Z,102314.75
2023-08-16T22:11:35.404Z,102305.19
2023-08-16T22:14:02.047Z,102301.25
2023-08-16T22:16:28.882Z,102302.03
2023-08-16T22:18:56.152Z,102300.28
2023-08-16T22:21:22.906Z,102302.50
2023-08-16T22:23:49.520Z,102301.69
2023-08-16T22:26:16.148Z,102306.28
2023-08-16T22:28:44.660Z,102305.31
2023-08-16T22:31:11.596Z,102305.97
2023-08-16T22:33:38.519Z,102308.19
2023-08-16T22:36:05.558Z,102314.38
2023-08-16T22:38:32.399Z,102298.28
2023-08-16T22:40:59.026Z,102301.47
2023-08-16T22:43:25.802Z,102302.72
2023-08-16T22:45:52.329Z,102305.13
2023-08-16T22:48:19.178Z,102297.03
2023-08-16T22:50:45.841Z,102304.34
2023-08-16T22:53:12.337Z,102291.13
2023-08-16T22:55:39.094Z,102296.00
2023-08-16T22:58:05.988Z,102299.47
2023-08-16T23:00:33.068Z,102293.22
2023-08-16T23:03:00.072Z,102291.16
2023-08-16T23:05:26.830Z,102294.91
2023-08-16T23:07:53.675Z,102296.28
2023-08-16T23:10:20.533Z,102296.59
2023-08-16T23:12:47.714Z,102297.88
2023-08-16T23:15:14.799Z,102301.06
2023-08-16T23:17:41.573Z,102306.94
2023-08-16T23:20:09.726Z,102305.22
2023-08-16T23:22:39.326Z,102301.13
2023-08-16T23:25:08.809Z,102301.59
2023-08-16T23:27:36.458Z,102308.88
2023-08-16T23:30:07.125Z,102308.56
2023-08-16T23:32:33.800Z,102303.00
2023-08-16T23:35:02.078Z,102309.81
2023-08-16T23:37:29.241Z,102312.66
2023-08-16T23:39:56.116Z,102315.66
2023-08-16T23:42:26.129Z,102317.56
2023-08-16T23:44:52.752Z,102317.38
2023-08-16T23:47:19.708Z,102322.78
2023-08-16T23:49:46.657Z,102312.59
2023-08-16T23:52:13.330Z,102322.78
2023-08-16T23:54:39.970Z,102324.69
2023-08-16T23:57:06.643Z,102314.50
2023-08-16T23:59:33.376Z,102320.53
